Shapleigh, Maine
Current Conditions -  °F | °C
As of 8:35 AM on Thursday 30 Oct 2014 (Local Time) from KSFM Reporting Station
Broken Clouds Broken Clouds  
Wind Chill: 40°   Ceiling: 7500
Heat Index: 45°   Visibility: 10mi
Dew Point: 37°   Wind: 8mph
Humidity: 76%   Direction: 250°WSW
Pressure: 29.91"   Gusts: NA
Location:  43.54°N, 70.85°W
Report Text: KSFM 301235Z AUTO 25007KT 10SM BKN075 07/03 A2991 RMK AO1
Loading
Personal Weather Stations






























Interactive Weather Map
Tropical Storm Tracking
New forecast layout! Learn more

10-Day Weather Forecast

Advertisements
Track Severe Weather on mobile